sensor_id;sensor_type;location;lat;lon;timestamp;temperature;humidity
78438;SHT31;67736;51.978;5.656;2023-11-22T00:01:04;8.0;70.8
78438;SHT31;67736;51.978;5.656;2023-11-22T00:03:34;8.0;70.7
78438;SHT31;67736;51.978;5.656;2023-11-22T00:06:04;8.0;70.6
78438;SHT31;67736;51.978;5.656;2023-11-22T00:08:35;8.0;70.4
78438;SHT31;67736;51.978;5.656;2023-11-22T00:11:04;8.0;70.2
78438;SHT31;67736;51.978;5.656;2023-11-22T00:13:34;8.0;70.3
78438;SHT31;67736;51.978;5.656;2023-11-22T00:16:04;8.0;70.2
78438;SHT31;67736;51.978;5.656;2023-11-22T00:18:36;8.0;70.0
78438;SHT31;67736;51.978;5.656;2023-11-22T00:21:06;8.0;69.8
78438;SHT31;67736;51.978;5.656;2023-11-22T00:23:37;8.0;69.8
78438;SHT31;67736;51.978;5.656;2023-11-22T00:26:06;8.0;69.8
78438;SHT31;67736;51.978;5.656;2023-11-22T00:28:36;8.0;69.9
78438;SHT31;67736;51.978;5.656;2023-11-22T00:31:06;8.0;69.9
78438;SHT31;67736;51.978;5.656;2023-11-22T00:33:35;7.9;70.0
78438;SHT31;67736;51.978;5.656;2023-11-22T00:36:05;7.9;70.2
78438;SHT31;67736;51.978;5.656;2023-11-22T00:38:35;7.9;70.0
78438;SHT31;67736;51.978;5.656;2023-11-22T00:41:07;7.9;70.0
78438;SHT31;67736;51.978;5.656;2023-11-22T00:43:38;7.8;70.1
78438;SHT31;67736;51.978;5.656;2023-11-22T00:46:09;7.8;70.2
78438;SHT31;67736;51.978;5.656;2023-11-22T00:48:41;7.8;70.0
78438;SHT31;67736;51.978;5.656;2023-11-22T00:51:10;7.8;69.9
78438;SHT31;67736;51.978;5.656;2023-11-22T00:53:40;7.9;69.5
78438;SHT31;67736;51.978;5.656;2023-11-22T00:56:10;7.9;69.1
78438;SHT31;67736;51.978;5.656;2023-11-22T00:58:40;7.9;68.7
78438;SHT31;67736;51.978;5.656;2023-11-22T01:01:10;7.9;68.7
78438;SHT31;67736;51.978;5.656;2023-11-22T01:03:41;7.9;68.6
78438;SHT31;67736;51.978;5.656;2023-11-22T01:06:11;7.9;68.2
78438;SHT31;67736;51.978;5.656;2023-11-22T01:08:40;7.9;67.8
78438;SHT31;67736;51.978;5.656;2023-11-22T01:11:10;7.9;67.6
78438;SHT31;67736;51.978;5.656;2023-11-22T01:13:39;7.9;67.4
78438;SHT31;67736;51.978;5.656;2023-11-22T01:16:11;7.9;67.5
78438;SHT31;67736;51.978;5.656;2023-11-22T01:18:40;7.9;67.1
78438;SHT31;67736;51.978;5.656;2023-11-22T01:21:12;7.9;66.9
78438;SHT31;67736;51.978;5.656;2023-11-22T01:23:42;7.8;66.7
78438;SHT31;67736;51.978;5.656;2023-11-22T01:26:13;7.8;66.8
78438;SHT31;67736;51.978;5.656;2023-11-22T01:28:44;7.8;66.7
78438;SHT31;67736;51.978;5.656;2023-11-22T01:31:15;7.7;67.1
78438;SHT31;67736;51.978;5.656;2023-11-22T01:33:48;7.7;67.1
78438;SHT31;67736;51.978;5.656;2023-11-22T01:36:18;7.6;67.3
78438;SHT31;67736;51.978;5.656;2023-11-22T01:38:47;7.6;67.4
78438;SHT31;67736;51.978;5.656;2023-11-22T01:41:18;7.5;67.9
78438;SHT31;67736;51.978;5.656;2023-11-22T01:43:47;7.4;68.0
78438;SHT31;67736;51.978;5.656;2023-11-22T01:46:22;7.4;68.3
78438;SHT31;67736;51.978;5.656;2023-11-22T01:48:54;7.3;68.4
78438;SHT31;67736;51.978;5.656;2023-11-22T01:51:24;7.3;68.2
78438;SHT31;67736;51.978;5.656;2023-11-22T01:53:56;7.2;68.3
78438;SHT31;67736;51.978;5.656;2023-11-22T01:56:28;7.2;68.4
78438;SHT31;67736;51.978;5.656;2023-11-22T01:58:59;7.1;68.4
78438;SHT31;67736;51.978;5.656;2023-11-22T02:01:29;7.1;68.4
78438;SHT31;67736;51.978;5.656;2023-11-22T02:03:58;7.1;68.6
78438;SHT31;67736;51.978;5.656;2023-11-22T02:06:28;7.1;68.3
78438;SHT31;67736;51.978;5.656;2023-11-22T02:08:58;7.0;68.0
78438;SHT31;67736;51.978;5.656;2023-11-22T02:11:28;7.0;68.0
78438;SHT31;67736;51.978;5.656;2023-11-22T02:13:58;7.0;67.9
78438;SHT31;67736;51.978;5.656;2023-11-22T02:16:27;7.0;67.6
78438;SHT31;67736;51.978;5.656;2023-11-22T02:18:59;6.9;67.7
78438;SHT31;67736;51.978;5.656;2023-11-22T02:21:29;6.9;68.0
78438;SHT31;67736;51.978;5.656;2023-11-22T02:23:59;6.9;68.5
78438;SHT31;67736;51.978;5.656;2023-11-22T02:26:29;6.8;69.1
78438;SHT31;67736;51.978;5.656;2023-11-22T02:29:00;6.8;68.4
78438;SHT31;67736;51.978;5.656;2023-11-22T02:31:31;6.8;68.6
78438;SHT31;67736;51.978;5.656;2023-11-22T02:34:01;6.8;68.4
78438;SHT31;67736;51.978;5.656;2023-11-22T02:36:33;6.8;68.5
78438;SHT31;67736;51.978;5.656;2023-11-22T02:39:02;6.8;68.4
78438;SHT31;67736;51.978;5.656;2023-11-22T02:41:32;6.7;68.5
78438;SHT31;67736;51.978;5.656;2023-11-22T02:44:02;6.7;68.6
78438;SHT31;67736;51.978;5.656;2023-11-22T02:46:34;6.7;68.0
78438;SHT31;67736;51.978;5.656;2023-11-22T02:49:05;6.7;68.1
78438;SHT31;67736;51.978;5.656;2023-11-22T02:51:37;6.7;68.0
78438;SHT31;67736;51.978;5.656;2023-11-22T02:54:07;6.7;67.6
78438;SHT31;67736;51.978;5.656;2023-11-22T02:56:37;6.7;67.5
78438;SHT31;67736;51.978;5.656;2023-11-22T02:59:07;6.7;67.4
78438;SHT31;67736;51.978;5.656;2023-11-22T03:01:40;6.7;67.0
78438;SHT31;67736;51.978;5.656;2023-11-22T03:04:13;6.7;67.1
78438;SHT31;67736;51.978;5.656;2023-11-22T03:06:43;6.7;67.2
78438;SHT31;67736;51.978;5.656;2023-11-22T03:09:12;6.7;67.2
78438;SHT31;67736;51.978;5.656;2023-11-22T03:11:42;6.6;67.0
78438;SHT31;67736;51.978;5.656;2023-11-22T03:14:11;6.6;66.9
78438;SHT31;67736;51.978;5.656;2023-11-22T03:16:41;6.6;66.8
78438;SHT31;67736;51.978;5.656;2023-11-22T03:19:11;6.6;66.7
78438;SHT31;67736;51.978;5.656;2023-11-22T03:21:41;6.5;66.7
78438;SHT31;67736;51.978;5.656;2023-11-22T03:24:11;6.5;66.6
78438;SHT31;67736;51.978;5.656;2023-11-22T03:26:43;6.5;66.8
78438;SHT31;67736;51.978;5.656;2023-11-22T03:29:14;6.4;66.5
78438;SHT31;67736;51.978;5.656;2023-11-22T03:31:44;6.4;66.7
78438;SHT31;67736;51.978;5.656;2023-11-22T03:34:14;6.4;66.9
78438;SHT31;67736;51.978;5.656;2023-11-22T03:36:44;6.4;66.8
78438;SHT31;67736;51.978;5.656;2023-11-22T03:39:15;6.4;66.7
78438;SHT31;67736;51.978;5.656;2023-11-22T03:41:46;6.3;66.7
78438;SHT31;67736;51.978;5.656;2023-11-22T03:44:17;6.3;66.7
78438;SHT31;67736;51.978;5.656;2023-11-22T03:46:49;6.3;66.6
78438;SHT31;67736;51.978;5.656;2023-11-22T03:49:18;6.3;66.5
78438;SHT31;67736;51.978;5.656;2023-11-22T03:51:50;6.3;66.5
78438;SHT31;67736;51.978;5.656;2023-11-22T03:54:20;6.3;66.6
78438;SHT31;67736;51.978;5.656;2023-11-22T03:56:50;6.3;66.5
78438;SHT31;67736;51.978;5.656;2023-11-22T03:59:19;6.2;66.4
78438;SHT31;67736;51.978;5.656;2023-11-22T04:01:49;6.2;66.5
78438;SHT31;67736;51.978;5.656;2023-11-22T04:04:19;6.2;66.3
78438;SHT31;67736;51.978;5.656;2023-11-22T04:06:49;6.2;66.2
78438;SHT31;67736;51.978;5.656;2023-11-22T04:09:20;6.1;66.3
78438;SHT31;67736;51.978;5.656;2023-11-22T04:11:49;6.1;66.7
78438;SHT31;67736;51.978;5.656;2023-11-22T04:14:19;6.1;67.0
78438;SHT31;67736;51.978;5.656;2023-11-22T04:16:51;6.1;66.7
78438;SHT31;67736;51.978;5.656;2023-11-22T04:19:21;6.1;66.5
78438;SHT31;67736;51.978;5.656;2023-11-22T04:21:50;6.0;66.7
78438;SHT31;67736;51.978;5.656;2023-11-22T04:24:21;6.0;66.8
78438;SHT31;67736;51.978;5.656;2023-11-22T04:26:51;6.0;66.8
78438;SHT31;67736;51.978;5.656;2023-11-22T04:29:20;5.9;66.7
78438;SHT31;67736;51.978;5.656;2023-11-22T04:31:50;5.9;66.8
78438;SHT31;67736;51.978;5.656;2023-11-22T04:34:19;5.9;67.1
78438;SHT31;67736;51.978;5.656;2023-11-22T04:36:49;5.8;67.4
78438;SHT31;67736;51.978;5.656;2023-11-22T04:39:19;5.8;67.3
78438;SHT31;67736;51.978;5.656;2023-11-22T04:41:48;5.8;67.6
78438;SHT31;67736;51.978;5.656;2023-11-22T04:44:18;5.8;67.3
78438;SHT31;67736;51.978;5.656;2023-11-22T04:46:47;5.8;67.4
78438;SHT31;67736;51.978;5.656;2023-11-22T04:49:17;5.8;67.7
78438;SHT31;67736;51.978;5.656;2023-11-22T04:51:47;5.8;67.7
78438;SHT31;67736;51.978;5.656;2023-11-22T04:54:17;5.7;67.7
78438;SHT31;67736;51.978;5.656;2023-11-22T04:56:46;5.7;67.7
78438;SHT31;67736;51.978;5.656;2023-11-22T04:59:16;5.7;67.7
78438;SHT31;67736;51.978;5.656;2023-11-22T05:01:45;5.7;67.7
78438;SHT31;67736;51.978;5.656;2023-11-22T05:04:16;5.7;67.4
78438;SHT31;67736;51.978;5.656;2023-11-22T05:06:45;5.7;67.3
78438;SHT31;67736;51.978;5.656;2023-11-22T05:09:15;5.7;67.3
78438;SHT31;67736;51.978;5.656;2023-11-22T05:11:45;5.7;67.5
78438;SHT31;67736;51.978;5.656;2023-11-22T05:14:15;5.7;67.9
78438;SHT31;67736;51.978;5.656;2023-11-22T05:16:44;5.7;68.0
78438;SHT31;67736;51.978;5.656;2023-11-22T05:19:14;5.6;68.2
78438;SHT31;67736;51.978;5.656;2023-11-22T05:21:43;5.6;68.5
78438;SHT31;67736;51.978;5.656;2023-11-22T05:24:13;5.6;68.7
78438;SHT31;67736;51.978;5.656;2023-11-22T05:26:43;5.6;68.8
78438;SHT31;67736;51.978;5.656;2023-11-22T05:29:12;5.6;68.3
78438;SHT31;67736;51.978;5.656;2023-11-22T05:31:42;5.6;68.3
78438;SHT31;67736;51.978;5.656;2023-11-22T05:34:12;5.6;68.6
78438;SHT31;67736;51.978;5.656;2023-11-22T05:36:43;5.6;68.6
78438;SHT31;67736;51.978;5.656;2023-11-22T05:39:16;5.6;68.6
78438;SHT31;67736;51.978;5.656;2023-11-22T05:41:46;5.6;69.0
78438;SHT31;67736;51.978;5.656;2023-11-22T05:44:17;5.6;69.2
78438;SHT31;67736;51.978;5.656;2023-11-22T05:46:47;5.6;69.4
78438;SHT31;67736;51.978;5.656;2023-11-22T05:49:16;5.6;69.4
78438;SHT31;67736;51.978;5.656;2023-11-22T05:51:46;5.6;69.4
78438;SHT31;67736;51.978;5.656;2023-11-22T05:54:16;5.6;70.0
78438;SHT31;67736;51.978;5.656;2023-11-22T05:56:46;5.6;70.1
78438;SHT31;67736;51.978;5.656;2023-11-22T05:59:16;5.6;70.0
78438;SHT31;67736;51.978;5.656;2023-11-22T06:01:46;5.6;70.0
78438;SHT31;67736;51.978;5.656;2023-11-22T06:04:15;5.6;70.2
78438;SHT31;67736;51.978;5.656;2023-11-22T06:06:45;5.7;70.1
78438;SHT31;67736;51.978;5.656;2023-11-22T06:09:15;5.7;70.0
78438;SHT31;67736;51.978;5.656;2023-11-22T06:11:47;5.7;69.8
78438;SHT31;67736;51.978;5.656;2023-11-22T06:14:17;5.8;70.2
78438;SHT31;67736;51.978;5.656;2023-11-22T06:16:47;5.8;70.2
78438;SHT31;67736;51.978;5.656;2023-11-22T06:19:17;5.8;70.2
78438;SHT31;67736;51.978;5.656;2023-11-22T06:21:46;5.8;70.1
78438;SHT31;67736;51.978;5.656;2023-11-22T06:24:18;5.9;70.1
78438;SHT31;67736;51.978;5.656;2023-11-22T06:26:48;5.9;70.1
78438;SHT31;67736;51.978;5.656;2023-11-22T06:29:18;5.9;70.2
78438;SHT31;67736;51.978;5.656;2023-11-22T06:31:47;5.9;70.1
78438;SHT31;67736;51.978;5.656;2023-11-22T06:34:17;5.9;69.9
78438;SHT31;67736;51.978;5.656;2023-11-22T06:36:47;6.0;69.6
78438;SHT31;67736;51.978;5.656;2023-11-22T06:39:18;6.0;69.3
78438;SHT31;67736;51.978;5.656;2023-11-22T06:41:50;6.0;69.5
78438;SHT31;67736;51.978;5.656;2023-11-22T06:44:19;6.1;69.7
78438;SHT31;67736;51.978;5.656;2023-11-22T06:46:50;6.1;69.7
78438;SHT31;67736;51.978;5.656;2023-11-22T06:49:21;6.1;69.6
78438;SHT31;67736;51.978;5.656;2023-11-22T06:51:50;6.1;69.6
78438;SHT31;67736;51.978;5.656;2023-11-22T06:54:20;6.1;69.7
78438;SHT31;67736;51.978;5.656;2023-11-22T06:56:50;6.1;69.7
78438;SHT31;67736;51.978;5.656;2023-11-22T06:59:21;6.1;69.9
78438;SHT31;67736;51.978;5.656;2023-11-22T07:01:50;6.1;70.1
78438;SHT31;67736;51.978;5.656;2023-11-22T07:04:20;6.1;70.5
78438;SHT31;67736;51.978;5.656;2023-11-22T07:06:50;6.1;70.9
78438;SHT31;67736;51.978;5.656;2023-11-22T07:09:20;6.0;71.4
78438;SHT31;67736;51.978;5.656;2023-11-22T07:11:49;6.0;71.8
78438;SHT31;67736;51.978;5.656;2023-11-22T07:14:19;5.9;72.1
78438;SHT31;67736;51.978;5.656;2023-11-22T07:16:49;5.9;72.4
78438;SHT31;67736;51.978;5.656;2023-11-22T07:19:18;5.9;72.5
78438;SHT31;67736;51.978;5.656;2023-11-22T07:21:48;5.9;72.6
78438;SHT31;67736;51.978;5.656;2023-11-22T07:24:19;5.9;72.7
78438;SHT31;67736;51.978;5.656;2023-11-22T07:26:50;5.9;72.9
78438;SHT31;67736;51.978;5.656;2023-11-22T07:29:20;5.9;72.9
78438;SHT31;67736;51.978;5.656;2023-11-22T07:31:56;6.0;73.2
78438;SHT31;67736;51.978;5.656;2023-11-22T07:34:25;6.0;73.2
78438;SHT31;67736;51.978;5.656;2023-11-22T07:36:55;6.1;73.0
78438;SHT31;67736;51.978;5.656;2023-11-22T07:39:27;6.1;72.8
78438;SHT31;67736;51.978;5.656;2023-11-22T07:41:58;6.2;72.7
78438;SHT31;67736;51.978;5.656;2023-11-22T07:44:28;6.2;72.7
78438;SHT31;67736;51.978;5.656;2023-11-22T07:47:00;6.2;73.0
78438;SHT31;67736;51.978;5.656;2023-11-22T07:49:29;6.3;72.9
78438;SHT31;67736;51.978;5.656;2023-11-22T07:52:05;6.3;72.7
78438;SHT31;67736;51.978;5.656;2023-11-22T07:54:34;6.4;72.7
78438;SHT31;67736;51.978;5.656;2023-11-22T07:57:04;6.5;72.6
78438;SHT31;67736;51.978;5.656;2023-11-22T07:59:35;6.5;72.5
78438;SHT31;67736;51.978;5.656;2023-11-22T08:02:06;6.6;72.4
78438;SHT31;67736;51.978;5.656;2023-11-22T08:04:39;6.6;72.5
78438;SHT31;67736;51.978;5.656;2023-11-22T08:07:08;6.7;72.0
78438;SHT31;67736;51.978;5.656;2023-11-22T08:09:40;6.8;71.6
78438;SHT31;67736;51.978;5.656;2023-11-22T08:12:10;6.8;71.3
78438;SHT31;67736;51.978;5.656;2023-11-22T08:14:40;6.9;71.2
78438;SHT31;67736;51.978;5.656;2023-11-22T08:17:11;6.9;71.4
78438;SHT31;67736;51.978;5.656;2023-11-22T08:19:41;7.0;71.3
78438;SHT31;67736;51.978;5.656;2023-11-22T08:22:10;7.0;71.2
78438;SHT31;67736;51.978;5.656;2023-11-22T08:24:40;7.1;71.0
78438;SHT31;67736;51.978;5.656;2023-11-22T08:27:09;7.1;70.8
78438;SHT31;67736;51.978;5.656;2023-11-22T08:29:41;7.1;70.4
78438;SHT31;67736;51.978;5.656;2023-11-22T08:32:14;7.1;70.2
78438;SHT31;67736;51.978;5.656;2023-11-22T08:34:44;7.2;70.2
78438;SHT31;67736;51.978;5.656;2023-11-22T08:37:13;7.2;70.3
78438;SHT31;67736;51.978;5.656;2023-11-22T08:39:43;7.2;70.3
78438;SHT31;67736;51.978;5.656;2023-11-22T08:42:13;7.2;70.6
78438;SHT31;67736;51.978;5.656;2023-11-22T08:44:42;7.2;70.6
78438;SHT31;67736;51.978;5.656;2023-11-22T08:47:12;7.2;70.5
78438;SHT31;67736;51.978;5.656;2023-11-22T08:49:42;7.3;70.4
78438;SHT31;67736;51.978;5.656;2023-11-22T08:52:12;7.3;70.4
78438;SHT31;67736;51.978;5.656;2023-11-22T08:54:41;7.3;70.6
78438;SHT31;67736;51.978;5.656;2023-11-22T08:57:11;7.4;70.9
78438;SHT31;67736;51.978;5.656;2023-11-22T08:59:40;7.4;70.2
78438;SHT31;67736;51.978;5.656;2023-11-22T09:02:10;7.5;69.9
78438;SHT31;67736;51.978;5.656;2023-11-22T09:04:42;7.5;69.4
78438;SHT31;67736;51.978;5.656;2023-11-22T09:07:12;7.5;69.3
78438;SHT31;67736;51.978;5.656;2023-11-22T09:09:42;7.5;69.6
78438;SHT31;67736;51.978;5.656;2023-11-22T09:12:11;7.5;69.5
78438;SHT31;67736;51.978;5.656;2023-11-22T09:14:43;7.5;69.7
78438;SHT31;67736;51.978;5.656;2023-11-22T09:17:13;7.5;69.6
78438;SHT31;67736;51.978;5.656;2023-11-22T09:19:43;7.5;69.7
78438;SHT31;67736;51.978;5.656;2023-11-22T09:22:15;7.5;69.9
78438;SHT31;67736;51.978;5.656;2023-11-22T09:24:48;7.5;69.8
78438;SHT31;67736;51.978;5.656;2023-11-22T09:27:19;7.5;69.9
78438;SHT31;67736;51.978;5.656;2023-11-22T09:29:49;7.5;70.4
78438;SHT31;67736;51.978;5.656;2023-11-22T09:32:18;7.5;70.6
78438;SHT31;67736;51.978;5.656;2023-11-22T09:34:49;7.6;70.7
78438;SHT31;67736;51.978;5.656;2023-11-22T09:37:26;7.6;70.5
78438;SHT31;67736;51.978;5.656;2023-11-22T09:39:57;7.6;70.3
78438;SHT31;67736;51.978;5.656;2023-11-22T09:42:26;7.7;70.1
78438;SHT31;67736;51.978;5.656;2023-11-22T09:44:57;7.7;70.7
78438;SHT31;67736;51.978;5.656;2023-11-22T09:47:27;7.7;70.9
78438;SHT31;67736;51.978;5.656;2023-11-22T09:49:58;7.8;70.9
78438;SHT31;67736;51.978;5.656;2023-11-22T09:52:33;7.8;70.2
78438;SHT31;67736;51.978;5.656;2023-11-22T09:55:08;7.9;69.9
78438;SHT31;67736;51.978;5.656;2023-11-22T09:57:39;7.9;69.9
78438;SHT31;67736;51.978;5.656;2023-11-22T10:00:11;7.9;70.0
78438;SHT31;67736;51.978;5.656;2023-11-22T10:02:46;8.0;69.2
78438;SHT31;67736;51.978;5.656;2023-11-22T10:05:16;8.0;69.2
78438;SHT31;67736;51.978;5.656;2023-11-22T10:07:47;8.0;69.4
78438;SHT31;67736;51.978;5.656;2023-11-22T10:10:19;8.0;69.8
78438;SHT31;67736;51.978;5.656;2023-11-22T10:12:49;8.1;69.3
78438;SHT31;67736;51.978;5.656;2023-11-22T10:15:20;8.1;69.5
78438;SHT31;67736;51.978;5.656;2023-11-22T10:17:54;8.2;69.8
78438;SHT31;67736;51.978;5.656;2023-11-22T10:20:37;8.2;69.3
78438;SHT31;67736;51.978;5.656;2023-11-22T10:23:11;8.3;68.7
78438;SHT31;67736;51.978;5.656;2023-11-22T10:25:45;8.3;68.5
78438;SHT31;67736;51.978;5.656;2023-11-22T10:28:17;8.4;68.8
78438;SHT31;67736;51.978;5.656;2023-11-22T10:30:48;8.4;67.4
78438;SHT31;67736;51.978;5.656;2023-11-22T10:33:19;8.4;67.0
78438;SHT31;67736;51.978;5.656;2023-11-22T10:35:51;8.5;66.4
78438;SHT31;67736;51.978;5.656;2023-11-22T10:38:21;8.5;65.9
78438;SHT31;67736;51.978;5.656;2023-11-22T10:40:54;8.5;66.3
78438;SHT31;67736;51.978;5.656;2023-11-22T10:43:28;8.5;66.5
78438;SHT31;67736;51.978;5.656;2023-11-22T10:46:03;8.5;66.6
78438;SHT31;67736;51.978;5.656;2023-11-22T10:48:33;8.6;66.8
78438;SHT31;67736;51.978;5.656;2023-11-22T10:51:04;8.6;66.4
78438;SHT31;67736;51.978;5.656;2023-11-22T10:53:36;8.6;66.4
78438;SHT31;67736;51.978;5.656;2023-11-22T10:56:11;8.6;67.0
78438;SHT31;67736;51.978;5.656;2023-11-22T10:58:47;8.6;67.3
78438;SHT31;67736;51.978;5.656;2023-11-22T11:01:19;8.6;67.4
78438;SHT31;67736;51.978;5.656;2023-11-22T11:03:59;8.6;67.4
78438;SHT31;67736;51.978;5.656;2023-11-22T11:06:33;8.7;67.6
78438;SHT31;67736;51.978;5.656;2023-11-22T11:09:05;8.7;67.6
78438;SHT31;67736;51.978;5.656;2023-11-22T11:11:37;8.7;67.8
78438;SHT31;67736;51.978;5.656;2023-11-22T11:14:09;8.7;67.4
78438;SHT31;67736;51.978;5.656;2023-11-22T11:16:40;8.8;66.9
78438;SHT31;67736;51.978;5.656;2023-11-22T11:19:16;8.8;66.1
78438;SHT31;67736;51.978;5.656;2023-11-22T11:21:49;8.9;64.7
78438;SHT31;67736;51.978;5.656;2023-11-22T11:24:18;8.9;64.8
78438;SHT31;67736;51.978;5.656;2023-11-22T11:26:50;8.9;64.0
78438;SHT31;67736;51.978;5.656;2023-11-22T11:29:32;9.0;63.5
78438;SHT31;67736;51.978;5.656;2023-11-22T11:32:04;9.0;63.6
78438;SHT31;67736;51.978;5.656;2023-11-22T11:34:38;9.0;63.7
78438;SHT31;67736;51.978;5.656;2023-11-22T11:37:15;9.0;63.1
78438;SHT31;67736;51.978;5.656;2023-11-22T11:39:45;9.0;62.5
78438;SHT31;67736;51.978;5.656;2023-11-22T11:42:14;9.1;63.3
78438;SHT31;67736;51.978;5.656;2023-11-22T11:45:07;9.1;62.7
78438;SHT31;67736;51.978;5.656;2023-11-22T11:47:37;9.1;62.9
78438;SHT31;67736;51.978;5.656;2023-11-22T11:50:08;9.1;63.3
78438;SHT31;67736;51.978;5.656;2023-11-22T11:52:42;9.1;63.1
78438;SHT31;67736;51.978;5.656;2023-11-22T11:55:11;9.1;62.8
78438;SHT31;67736;51.978;5.656;2023-11-22T11:57:41;9.1;63.4
78438;SHT31;67736;51.978;5.656;2023-11-22T12:00:14;9.1;63.2
78438;SHT31;67736;51.978;5.656;2023-11-22T12:02:46;9.1;63.2
78438;SHT31;67736;51.978;5.656;2023-11-22T12:05:18;9.1;63.3
78438;SHT31;67736;51.978;5.656;2023-11-22T12:07:47;9.1;63.7
78438;SHT31;67736;51.978;5.656;2023-11-22T12:10:17;9.1;63.7
78438;SHT31;67736;51.978;5.656;2023-11-22T12:12:49;9.1;64.1
78438;SHT31;67736;51.978;5.656;2023-11-22T12:15:20;9.1;63.7
78438;SHT31;67736;51.978;5.656;2023-11-22T12:17:50;9.1;63.9
78438;SHT31;67736;51.978;5.656;2023-11-22T12:20:24;9.2;63.7
78438;SHT31;67736;51.978;5.656;2023-11-22T12:22:58;9.2;63.8
78438;SHT31;67736;51.978;5.656;2023-11-22T12:25:29;9.2;63.1
78438;SHT31;67736;51.978;5.656;2023-11-22T12:27:59;9.2;63.3
78438;SHT31;67736;51.978;5.656;2023-11-22T12:30:35;9.2;63.3
78438;SHT31;67736;51.978;5.656;2023-11-22T12:33:08;9.2;63.5
78438;SHT31;67736;51.978;5.656;2023-11-22T12:35:42;9.2;63.9
78438;SHT31;67736;51.978;5.656;2023-11-22T12:38:12;9.2;63.8
78438;SHT31;67736;51.978;5.656;2023-11-22T12:40:46;9.3;63.6
78438;SHT31;67736;51.978;5.656;2023-11-22T12:43:16;9.3;64.0
78438;SHT31;67736;51.978;5.656;2023-11-22T12:45:45;9.3;63.8
78438;SHT31;67736;51.978;5.656;2023-11-22T12:48:22;9.3;63.7
78438;SHT31;67736;51.978;5.656;2023-11-22T12:50:53;9.4;63.0
78438;SHT31;67736;51.978;5.656;2023-11-22T12:53:24;9.4;62.7
78438;SHT31;67736;51.978;5.656;2023-11-22T12:55:56;9.4;63.2
78438;SHT31;67736;51.978;5.656;2023-11-22T12:58:26;9.4;62.6
78438;SHT31;67736;51.978;5.656;2023-11-22T13:00:56;9.4;62.6
78438;SHT31;67736;51.978;5.656;2023-11-22T13:03:28;9.5;63.0
78438;SHT31;67736;51.978;5.656;2023-11-22T13:05:59;9.5;62.2
78438;SHT31;67736;51.978;5.656;2023-11-22T13:08:29;9.5;61.7
78438;SHT31;67736;51.978;5.656;2023-11-22T13:11:00;9.5;61.3
78438;SHT31;67736;51.978;5.656;2023-11-22T13:13:29;9.5;61.4
78438;SHT31;67736;51.978;5.656;2023-11-22T13:16:01;9.5;62.0
78438;SHT31;67736;51.978;5.656;2023-11-22T13:18:32;9.5;61.8
78438;SHT31;67736;51.978;5.656;2023-11-22T13:21:05;9.5;62.1
78438;SHT31;67736;51.978;5.656;2023-11-22T13:23:34;9.6;62.0
78438;SHT31;67736;51.978;5.656;2023-11-22T13:26:06;9.6;61.9
78438;SHT31;67736;51.978;5.656;2023-11-22T13:28:40;9.6;62.1
78438;SHT31;67736;51.978;5.656;2023-11-22T13:31:10;9.5;62.3
78438;SHT31;67736;51.978;5.656;2023-11-22T13:33:40;9.5;62.6
78438;SHT31;67736;51.978;5.656;2023-11-22T13:36:11;9.5;63.0
78438;SHT31;67736;51.978;5.656;2023-11-22T13:38:41;9.5;62.9
78438;SHT31;67736;51.978;5.656;2023-11-22T13:41:11;9.5;63.0
78438;SHT31;67736;51.978;5.656;2023-11-22T13:43:40;9.5;63.3
78438;SHT31;67736;51.978;5.656;2023-11-22T13:46:10;9.5;63.2
78438;SHT31;67736;51.978;5.656;2023-11-22T13:48:39;9.5;62.7
78438;SHT31;67736;51.978;5.656;2023-11-22T13:51:09;9.5;62.9
78438;SHT31;67736;51.978;5.656;2023-11-22T13:53:39;9.5;62.9
78438;SHT31;67736;51.978;5.656;2023-11-22T13:56:11;9.5;63.3
78438;SHT31;67736;51.978;5.656;2023-11-22T13:58:41;9.5;63.8
78438;SHT31;67736;51.978;5.656;2023-11-22T14:01:11;9.5;63.5
78438;SHT31;67736;51.978;5.656;2023-11-22T14:03:46;9.5;63.4
78438;SHT31;67736;51.978;5.656;2023-11-22T14:06:15;9.5;63.1
78438;SHT31;67736;51.978;5.656;2023-11-22T14:08:45;9.5;63.4
78438;SHT31;67736;51.978;5.656;2023-11-22T14:11:14;9.5;63.5
78438;SHT31;67736;51.978;5.656;2023-11-22T14:13:43;9.5;63.8
78438;SHT31;67736;51.978;5.656;2023-11-22T14:16:13;9.5;64.3
78438;SHT31;67736;51.978;5.656;2023-11-22T14:18:42;9.5;64.5
78438;SHT31;67736;51.978;5.656;2023-11-22T14:21:14;9.5;64.6
78438;SHT31;67736;51.978;5.656;2023-11-22T14:23:44;9.4;64.4
78438;SHT31;67736;51.978;5.656;2023-11-22T14:26:14;9.4;64.3
78438;SHT31;67736;51.978;5.656;2023-11-22T14:28:45;9.4;64.3
78438;SHT31;67736;51.978;5.656;2023-11-22T14:31:15;9.4;64.2
78438;SHT31;67736;51.978;5.656;2023-11-22T14:33:45;9.3;64.5
78438;SHT31;67736;51.978;5.656;2023-11-22T14:36:14;9.3;64.9
78438;SHT31;67736;51.978;5.656;2023-11-22T14:38:44;9.3;65.0
78438;SHT31;67736;51.978;5.656;2023-11-22T14:41:18;9.3;65.3
78438;SHT31;67736;51.978;5.656;2023-11-22T14:43:48;9.2;65.6
78438;SHT31;67736;51.978;5.656;2023-11-22T14:46:19;9.2;65.9
78438;SHT31;67736;51.978;5.656;2023-11-22T14:48:49;9.2;66.5
78438;SHT31;67736;51.978;5.656;2023-11-22T14:51:18;9.2;66.8
78438;SHT31;67736;51.978;5.656;2023-11-22T14:53:48;9.2;66.9
78438;SHT31;67736;51.978;5.656;2023-11-22T14:56:17;9.2;67.3
78438;SHT31;67736;51.978;5.656;2023-11-22T14:58:50;9.1;67.0
78438;SHT31;67736;51.978;5.656;2023-11-22T15:01:21;9.1;67.0
78438;SHT31;67736;51.978;5.656;2023-11-22T15:03:53;9.1;67.2
78438;SHT31;67736;51.978;5.656;2023-11-22T15:06:23;9.0;67.4
78438;SHT31;67736;51.978;5.656;2023-11-22T15:08:53;9.0;67.4
78438;SHT31;67736;51.978;5.656;2023-11-22T15:11:25;9.0;67.5
78438;SHT31;67736;51.978;5.656;2023-11-22T15:13:54;8.9;67.8
78438;SHT31;67736;51.978;5.656;2023-11-22T15:16:23;8.9;67.8
78438;SHT31;67736;51.978;5.656;2023-11-22T15:18:55;8.9;67.9
78438;SHT31;67736;51.978;5.656;2023-11-22T15:21:27;8.9;67.7
78438;SHT31;67736;51.978;5.656;2023-11-22T15:23:57;8.8;67.6
78438;SHT31;67736;51.978;5.656;2023-11-22T15:26:28;8.8;67.6
78438;SHT31;67736;51.978;5.656;2023-11-22T15:28:59;8.8;67.7
78438;SHT31;67736;51.978;5.656;2023-11-22T15:31:29;8.7;67.6
78438;SHT31;67736;51.978;5.656;2023-11-22T15:33:58;8.7;67.7
78438;SHT31;67736;51.978;5.656;2023-11-22T15:36:29;8.7;68.0
78438;SHT31;67736;51.978;5.656;2023-11-22T15:38:59;8.6;68.4
78438;SHT31;67736;51.978;5.656;2023-11-22T15:41:29;8.6;68.9
78438;SHT31;67736;51.978;5.656;2023-11-22T15:43:59;8.6;69.2
78438;SHT31;67736;51.978;5.656;2023-11-22T15:46:30;8.6;69.2
78438;SHT31;67736;51.978;5.656;2023-11-22T15:49:00;8.6;68.8
78438;SHT31;67736;51.978;5.656;2023-11-22T15:51:33;8.6;69.1
78438;SHT31;67736;51.978;5.656;2023-11-22T15:54:03;8.6;69.5
78438;SHT31;67736;51.978;5.656;2023-11-22T15:56:33;8.6;69.6
78438;SHT31;67736;51.978;5.656;2023-11-22T15:59:02;8.6;69.5
78438;SHT31;67736;51.978;5.656;2023-11-22T16:01:32;8.6;69.6
78438;SHT31;67736;51.978;5.656;2023-11-22T16:04:02;8.5;69.5
78438;SHT31;67736;51.978;5.656;2023-11-22T16:06:34;8.5;69.7
78438;SHT31;67736;51.978;5.656;2023-11-22T16:09:05;8.5;69.5
78438;SHT31;67736;51.978;5.656;2023-11-22T16:11:37;8.5;69.3
78438;SHT31;67736;51.978;5.656;2023-11-22T16:14:07;8.5;69.1
78438;SHT31;67736;51.978;5.656;2023-11-22T16:16:37;8.5;69.2
78438;SHT31;67736;51.978;5.656;2023-11-22T16:19:07;8.5;69.0
78438;SHT31;67736;51.978;5.656;2023-11-22T16:21:37;8.5;69.1
78438;SHT31;67736;51.978;5.656;2023-11-22T16:24:07;8.5;69.3
78438;SHT31;67736;51.978;5.656;2023-11-22T16:26:39;8.5;69.2
78438;SHT31;67736;51.978;5.656;2023-11-22T16:29:09;8.5;69.2
78438;SHT31;67736;51.978;5.656;2023-11-22T16:31:39;8.5;69.1
78438;SHT31;67736;51.978;5.656;2023-11-22T16:34:13;8.5;69.2
78438;SHT31;67736;51.978;5.656;2023-11-22T16:36:43;8.4;69.4
78438;SHT31;67736;51.978;5.656;2023-11-22T16:39:13;8.4;69.6